createdAt,value
2022-11-02T00:01:16.717Z,57.54
2022-11-02T00:03:18.293Z,57.51
2022-11-02T00:05:24.659Z,57.56
2022-11-02T00:07:26.115Z,57.76
2022-11-02T00:09:27.611Z,57.65
2022-11-02T00:11:29.308Z,57.68
2022-11-02T00:13:32.083Z,57.71
2022-11-02T00:15:35.971Z,57.84
2022-11-02T00:17:40.102Z,57.78
2022-11-02T00:19:41.620Z,57.75
2022-11-02T00:21:43.644Z,57.62
2022-11-02T00:23:46.661Z,57.87
2022-11-02T00:25:52.649Z,57.75
2022-11-02T00:27:54.278Z,57.82
2022-11-02T00:29:55.985Z,57.62
2022-11-02T00:31:57.662Z,57.78
2022-11-02T00:34:19.820Z,57.62
2022-11-02T00:36:21.657Z,57.69
2022-11-02T00:38:23.978Z,57.67
2022-11-02T00:40:26.195Z,57.71
2022-11-02T00:42:28.266Z,57.83
2022-11-02T00:44:29.848Z,57.83
2022-11-02T00:46:32.621Z,57.84
2022-11-02T00:48:34.416Z,57.92
2022-11-02T00:50:36.385Z,58.01
2022-11-02T00:52:40.301Z,58.00
2022-11-02T00:54:42.452Z,58.01
2022-11-02T00:56:57.287Z,58.02
2022-11-02T00:58:59.224Z,57.94
2022-11-02T01:01:05.324Z,57.91
2022-11-02T01:03:07.177Z,58.08
2022-11-02T01:05:10.823Z,57.87
2022-11-02T01:07:12.407Z,57.73
2022-11-02T01:09:15.772Z,57.92
2022-11-02T01:11:20.256Z,57.83
2022-11-02T01:13:21.947Z,57.55
2022-11-02T01:15:23.659Z,57.91
2022-11-02T01:17:25.248Z,57.64
2022-11-02T01:19:27.129Z,57.64
2022-11-02T01:21:28.748Z,57.51
2022-11-02T01:23:36.952Z,57.60
2022-11-02T01:25:38.537Z,57.41
2022-11-02T01:27:40.048Z,57.40
2022-11-02T01:29:41.698Z,57.43
2022-11-02T01:31:43.238Z,57.37
2022-11-02T01:33:46.003Z,57.22
2022-11-02T01:35:47.731Z,57.43
2022-11-02T01:37:49.350Z,57.27
2022-11-02T01:39:50.944Z,57.10
2022-11-02T01:41:54.462Z,56.97
2022-11-02T01:43:58.897Z,57.06
2022-11-02T01:46:12.889Z,56.90
2022-11-02T01:48:15.026Z,57.10
2022-11-02T01:50:26.094Z,56.74
2022-11-02T01:52:34.299Z,56.82
2022-11-02T01:54:50.441Z,56.85
2022-11-02T01:56:57.217Z,56.93
2022-11-02T01:59:03.095Z,56.65
2022-11-02T02:01:05.106Z,56.86
2022-11-02T02:03:09.810Z,56.99
2022-11-02T02:05:14.651Z,56.70
2022-11-02T02:07:17.187Z,56.79
2022-11-02T02:09:20.757Z,56.86
2022-11-02T02:11:33.353Z,56.60
2022-11-02T02:13:35.611Z,56.83
2022-11-02T02:16:06.682Z,56.43
2022-11-02T02:18:33.249Z,56.49
2022-11-02T02:21:05.112Z,56.38
2022-11-02T02:23:31.225Z,56.60
2022-11-02T02:26:11.656Z,56.54
2022-11-02T02:28:31.013Z,56.58
2022-11-02T02:30:40.453Z,56.53
2022-11-02T02:32:54.924Z,56.59
2022-11-02T02:35:02.104Z,56.55
2022-11-02T02:37:19.116Z,56.49
2022-11-02T02:39:36.315Z,56.74
2022-11-02T02:41:39.698Z,56.82
2022-11-02T02:43:51.073Z,56.65
2022-11-02T02:46:03.943Z,56.71
2022-11-02T02:48:06.326Z,56.78
2022-11-02T02:50:17.970Z,56.87
2022-11-02T02:52:21.786Z,56.61
2022-11-02T02:54:31.261Z,56.48
2022-11-02T02:56:39.911Z,56.53
2022-11-02T02:58:47.361Z,56.65
2022-11-02T03:00:53.166Z,56.63
2022-11-02T03:03:03.693Z,56.59
2022-11-02T03:05:24.174Z,56.45
2022-11-02T03:07:33.749Z,56.62
2022-11-02T03:09:52.111Z,56.49
2022-11-02T03:12:31.940Z,56.54
2022-11-02T03:15:11.004Z,56.75
2022-11-02T03:17:23.898Z,56.63
2022-11-02T03:19:49.285Z,56.95
2022-11-02T03:22:04.787Z,56.97
2022-11-02T03:24:15.021Z,56.88
2022-11-02T03:26:34.162Z,57.07
2022-11-02T03:28:54.736Z,57.00
2022-11-02T03:31:08.460Z,57.28
2022-11-02T03:33:22.250Z,57.25
2022-11-02T03:35:41.561Z,57.27
2022-11-02T03:37:59.077Z,57.38
2022-11-02T03:40:06.455Z,57.45
2022-11-02T03:42:12.571Z,57.36
2022-11-02T03:44:20.918Z,57.72
2022-11-02T03:46:26.277Z,57.53
2022-11-02T03:48:35.051Z,57.69
2022-11-02T03:50:47.315Z,57.81
2022-11-02T03:52:56.364Z,58.05
2022-11-02T03:55:12.360Z,57.98
2022-11-02T03:57:21.844Z,57.94
2022-11-02T03:59:23.601Z,57.65
2022-11-02T04:01:27.210Z,57.92
2022-11-02T04:03:32.098Z,57.91
2022-11-02T04:05:39.747Z,57.87
2022-11-02T04:08:10.883Z,57.88
2022-11-02T04:10:12.885Z,58.10
2022-11-02T04:12:33.491Z,57.85
2022-11-02T04:14:37.897Z,57.84
2022-11-02T04:16:43.203Z,57.90
2022-11-02T04:19:08.983Z,58.01
2022-11-02T04:21:11.449Z,57.83
2022-11-02T04:23:31.634Z,57.83
2022-11-02T04:25:33.347Z,57.70
2022-11-02T04:28:08.815Z,57.96
2022-11-02T04:30:23.408Z,57.93
2022-11-02T04:32:45.980Z,57.96
2022-11-02T04:34:50.795Z,57.79
2022-11-02T04:36:55.553Z,57.95
2022-11-02T04:38:57.964Z,58.12
2022-11-02T04:41:21.207Z,58.57
2022-11-02T04:43:25.381Z,58.32
2022-11-02T04:45:27.605Z,58.31
2022-11-02T04:47:32.490Z,58.28
2022-11-02T04:49:36.992Z,58.28
2022-11-02T04:51:45.746Z,58.38
2022-11-02T04:53:52.829Z,58.34
2022-11-02T04:55:55.324Z,58.41
2022-11-02T04:57:57.200Z,58.35
2022-11-02T04:59:59.055Z,58.37
2022-11-02T05:02:04.389Z,58.32
2022-11-02T05:04:07.069Z,58.32
2022-11-02T05:06:11.358Z,58.31
2022-11-02T05:08:13.220Z,58.30
2022-11-02T05:10:15.095Z,58.21
2022-11-02T05:12:19.397Z,58.05
2022-11-02T05:14:23.820Z,58.13
2022-11-02T05:16:26.160Z,58.14
2022-11-02T05:18:29.654Z,57.92
2022-11-02T05:20:33.801Z,58.08
2022-11-02T05:22:41.159Z,58.06
2022-11-02T05:24:42.961Z,58.00
2022-11-02T05:26:52.912Z,58.11
2022-11-02T05:28:58.668Z,57.82
2022-11-02T05:31:01.883Z,57.96
2022-11-02T05:33:06.586Z,57.94
2022-11-02T05:35:09.636Z,57.96
2022-11-02T05:37:11.274Z,57.88
2022-11-02T05:39:12.899Z,57.71
2022-11-02T05:41:14.839Z,57.77
2022-11-02T05:43:17.844Z,57.77
2022-11-02T05:45:23.585Z,57.76
2022-11-02T05:47:26.172Z,57.75
2022-11-02T05:49:27.844Z,57.66
2022-11-02T05:51:29.397Z,57.83
2022-11-02T05:53:32.584Z,57.58
2022-11-02T05:55:35.543Z,57.70
2022-11-02T05:57:37.133Z,57.68
2022-11-02T05:59:38.758Z,57.69
2022-11-02T06:01:40.480Z,57.66
2022-11-02T06:03:42.260Z,57.71
2022-11-02T06:05:44.645Z,57.64
2022-11-02T06:07:48.773Z,57.59
2022-11-02T06:09:50.488Z,57.81
2022-11-02T06:11:52.232Z,57.82
2022-11-02T06:13:54.008Z,57.77
2022-11-02T06:15:59.470Z,57.70
2022-11-02T06:18:01.155Z,57.72
2022-11-02T06:20:02.756Z,57.89
2022-11-02T06:22:04.413Z,57.95
2022-11-02T06:24:06.365Z,57.95
2022-11-02T06:26:10.059Z,58.34
2022-11-02T06:28:11.716Z,58.11
2022-11-02T06:30:13.265Z,58.37
2022-11-02T06:32:14.907Z,58.65
2022-11-02T06:34:16.419Z,58.38
2022-11-02T06:36:18.042Z,58.64
2022-11-02T06:38:20.152Z,58.67
2022-11-02T06:40:25.635Z,58.72
2022-11-02T06:42:28.418Z,58.84
2022-11-02T06:44:30.028Z,58.92
2022-11-02T06:46:32.440Z,58.94
2022-11-02T06:48:36.586Z,58.88
2022-11-02T06:50:38.571Z,58.91
2022-11-02T06:52:48.910Z,59.08
2022-11-02T06:54:50.801Z,59.04
2022-11-02T06:56:55.119Z,59.16
2022-11-02T06:58:56.876Z,59.73
2022-11-02T07:01:01.205Z,59.70
2022-11-02T07:03:09.376Z,59.30
2022-11-02T07:05:11.597Z,59.35
2022-11-02T07:07:13.055Z,59.33
2022-11-02T07:09:15.068Z,59.28
2022-11-02T07:11:18.722Z,59.50
2022-11-02T07:13:20.928Z,59.48
2022-11-02T07:15:24.101Z,59.46
2022-11-02T07:17:31.068Z,59.55
2022-11-02T07:19:33.838Z,59.58
2022-11-02T07:21:40.471Z,59.62
2022-11-02T07:23:44.247Z,59.68
2022-11-02T07:25:45.913Z,59.76
2022-11-02T07:27:50.311Z,59.95
2022-11-02T07:29:51.981Z,59.94
2022-11-02T07:31:56.863Z,59.79
2022-11-02T07:33:58.432Z,59.87
2022-11-02T07:36:02.794Z,59.76
2022-11-02T07:38:06.915Z,60.10
2022-11-02T07:40:10.864Z,60.32
2022-11-02T07:42:16.571Z,60.03
2022-11-02T07:44:18.929Z,60.20
2022-11-02T07:46:31.551Z,60.22
2022-11-02T07:48:33.428Z,60.35
2022-11-02T07:50:35.347Z,60.48
2022-11-02T07:52:47.673Z,60.46
2022-11-02T07:54:49.417Z,60.40
2022-11-02T07:56:51.310Z,60.23
2022-11-02T07:58:52.978Z,60.52
2022-11-02T08:01:00.043Z,60.38
2022-11-02T08:03:03.831Z,60.33
2022-11-02T08:05:06.337Z,59.94
2022-11-02T08:07:08.050Z,60.10
2022-11-02T08:09:09.677Z,60.17
2022-11-02T08:11:13.269Z,60.24
2022-11-02T08:13:21.170Z,60.15
2022-11-02T08:15:23.139Z,60.25
2022-11-02T08:17:24.871Z,60.11
2022-11-02T08:19:26.552Z,59.99
2022-11-02T08:21:28.132Z,59.99
2022-11-02T08:23:30.255Z,60.02
2022-11-02T08:25:32.713Z,60.32
2022-11-02T08:27:34.671Z,60.11
2022-11-02T08:29:36.933Z,60.11
2022-11-02T08:31:38.636Z,59.94
2022-11-02T08:33:40.215Z,60.09
2022-11-02T08:35:43.788Z,60.19
2022-11-02T08:37:45.384Z,60.02
2022-11-02T08:39:49.950Z,59.97
2022-11-02T08:41:52.192Z,59.88
2022-11-02T08:43:53.956Z,59.75
2022-11-02T08:46:17.221Z,59.84
2022-11-02T08:48:19.119Z,59.98
2022-11-02T08:50:24.245Z,59.67
2022-11-02T08:52:25.964Z,59.70
2022-11-02T08:54:27.956Z,59.63
2022-11-02T08:56:29.673Z,59.89
2022-11-02T08:58:31.425Z,59.94
2022-11-02T09:00:34.716Z,59.73
2022-11-02T09:02:36.301Z,59.86
2022-11-02T09:04:38.089Z,59.92
2022-11-02T09:06:51.626Z,59.99
2022-11-02T09:08:56.344Z,59.93
2022-11-02T09:11:05.523Z,60.13
2022-11-02T09:13:10.370Z,59.98
2022-11-02T09:15:12.101Z,60.33
2022-11-02T09:17:18.684Z,60.24
2022-11-02T09:19:20.422Z,60.63
2022-11-02T09:21:22.151Z,60.50
2022-11-02T09:23:23.989Z,60.39
2022-11-02T09:25:27.030Z,60.36
2022-11-02T09:27:28.895Z,60.33
2022-11-02T09:29:30.368Z,60.54
2022-11-02T09:31:32.139Z,60.28
2022-11-02T09:34:04.798Z,60.58
2022-11-02T09:36:06.978Z,60.26
2022-11-02T09:38:08.823Z,60.43
2022-11-02T09:40:22.956Z,60.31
2022-11-02T09:42:24.831Z,60.36
2022-11-02T09:44:58.590Z,60.48
2022-11-02T09:47:55.966Z,60.38
2022-11-02T09:49:29.189Z,60.25
2022-11-02T09:51:35.573Z,60.39
2022-11-02T09:54:22.356Z,60.39
2022-11-02T09:56:24.373Z,60.23
2022-11-02T09:58:32.731Z,60.30
2022-11-02T10:00:42.261Z,60.17
2022-11-02T10:03:05.443Z,60.29
2022-11-02T10:05:25.884Z,60.56
2022-11-02T10:08:04.500Z,60.33
2022-11-02T10:10:06.481Z,60.21
2022-11-02T10:12:28.897Z,60.32
2022-11-02T10:14:35.895Z,60.17
2022-11-02T10:16:50.853Z,60.27
2022-11-02T10:18:57.763Z,60.10
2022-11-02T10:21:13.070Z,60.49
2022-11-02T10:23:30.908Z,60.38
2022-11-02T10:25:35.164Z,60.23
2022-11-02T10:27:40.634Z,60.26
2022-11-02T10:30:17.045Z,60.58
2022-11-02T10:32:19.149Z,60.52
2022-11-02T10:34:29.869Z,60.20
2022-11-02T10:36:46.319Z,60.30
2022-11-02T10:39:03.018Z,60.22
2022-11-02T10:41:27.803Z,60.47
2022-11-02T10:43:59.726Z,60.56
2022-11-02T10:46:05.020Z,60.12
2022-11-02T10:48:18.734Z,60.11
2022-11-02T10:50:47.518Z,60.08
2022-11-02T10:52:49.205Z,59.92
2022-11-02T10:54:52.362Z,59.74
2022-11-02T10:56:56.243Z,59.70
2022-11-02T10:59:14.159Z,59.36
2022-11-02T11:01:16.250Z,59.32
2022-11-02T11:03:19.519Z,59.55
2022-11-02T11:05:21.369Z,59.17
2022-11-02T11:07:27.861Z,58.97
2022-11-02T11:09:42.888Z,58.55
2022-11-02T11:12:03.047Z,57.57
2022-11-02T11:16:39.774Z,57.11
2022-11-02T11:21:07.778Z,56.82
2022-11-02T11:23:09.708Z,56.54
2022-11-02T11:25:27.838Z,56.53
2022-11-02T11:27:45.239Z,56.19
2022-11-02T11:29:54.107Z,56.46
2022-11-02T11:31:56.077Z,56.67
2022-11-02T11:34:00.344Z,56.17
2022-11-02T11:36:02.272Z,55.93
2022-11-02T11:38:08.310Z,55.82
2022-11-02T11:40:20.112Z,55.63
2022-11-02T11:42:25.840Z,55.73
2022-11-02T11:44:27.766Z,55.30
2022-11-02T11:46:41.727Z,54.69
2022-11-02T11:48:59.614Z,55.19
2022-11-02T11:51:03.716Z,54.92
2022-11-02T11:53:26.523Z,55.55
2022-11-02T11:55:31.880Z,55.35
2022-11-02T11:59:42.717Z,55.07
2022-11-02T12:01:44.625Z,54.40
2022-11-02T12:04:01.289Z,53.68
2022-11-02T12:06:28.335Z,53.96
2022-11-02T12:08:59.004Z,54.31
2022-11-02T12:11:22.442Z,54.00
2022-11-02T12:13:51.003Z,54.42
2022-11-02T12:15:55.855Z,54.41
2022-11-02T12:18:22.313Z,53.61
2022-11-02T12:20:49.976Z,54.00
2022-11-02T12:23:00.890Z,54.17
2022-11-02T12:25:16.381Z,53.61
2022-11-02T12:27:32.109Z,54.00
2022-11-02T12:29:42.810Z,53.65
2022-11-02T12:31:53.555Z,53.64
2022-11-02T12:34:22.260Z,52.92
2022-11-02T12:36:39.532Z,52.99
2022-11-02T12:38:58.535Z,52.56
2022-11-02T12:41:07.366Z,52.40
2022-11-02T12:43:38.695Z,51.94
2022-11-02T12:46:02.525Z,52.12
2022-11-02T12:48:05.553Z,52.44
2022-11-02T12:50:44.553Z,51.59
2022-11-02T12:53:13.443Z,50.83
2022-11-02T12:55:19.983Z,51.39
2022-11-02T12:57:28.432Z,50.97
2022-11-02T12:59:37.234Z,50.41
2022-11-02T13:03:55.430Z,50.26
2022-11-02T13:06:06.394Z,50.53
2022-11-02T13:08:25.859Z,49.85
2022-11-02T13:10:47.128Z,49.39
2022-11-02T13:14:57.995Z,49.86
2022-11-02T13:17:11.711Z,49.62
2022-11-02T13:19:20.329Z,49.64
2022-11-02T13:21:43.736Z,49.28
2022-11-02T13:23:51.652Z,49.47
2022-11-02T13:26:02.438Z,49.28
2022-11-02T13:28:19.349Z,49.07
2022-11-02T13:30:21.369Z,49.20
2022-11-02T13:32:32.591Z,49.44
2022-11-02T13:34:40.753Z,49.21
2022-11-02T13:36:42.510Z,49.12
2022-11-02T13:38:46.558Z,49.11
2022-11-02T13:41:04.431Z,48.99
2022-11-02T13:43:25.999Z,48.79
2022-11-02T13:45:46.893Z,49.33
2022-11-02T13:48:16.044Z,48.80
2022-11-02T13:50:22.870Z,49.00
2022-11-02T13:52:43.290Z,48.63
2022-11-02T13:54:51.165Z,48.69
2022-11-02T13:56:56.291Z,48.71
2022-11-02T13:59:04.509Z,49.11
2022-11-02T14:01:10.687Z,48.94
2022-11-02T14:03:18.210Z,48.47
2022-11-02T14:05:31.196Z,48.31
2022-11-02T14:07:35.616Z,48.53
2022-11-02T14:09:42.272Z,48.77
2022-11-02T14:11:43.853Z,48.91
2022-11-02T14:13:54.289Z,48.72
2022-11-02T14:15:56.609Z,48.56
2022-11-02T14:18:07.299Z,48.30
2022-11-02T14:20:39.690Z,48.80
2022-11-02T14:22:41.305Z,49.08
2022-11-02T14:24:42.871Z,48.78
2022-11-02T14:26:56.020Z,48.56
2022-11-02T14:28:57.817Z,48.64
2022-11-02T14:31:05.581Z,48.40
2022-11-02T14:33:21.595Z,48.81
2022-11-02T14:35:46.446Z,48.50
2022-11-02T14:38:07.183Z,48.15
2022-11-02T14:40:47.727Z,48.21
2022-11-02T14:43:13.134Z,48.50
2022-11-02T14:45:32.765Z,48.21
2022-11-02T14:47:38.776Z,48.29
2022-11-02T14:49:49.538Z,48.31
2022-11-02T14:52:14.494Z,48.04
2022-11-02T14:54:18.752Z,48.07
2022-11-02T14:56:20.398Z,48.17
2022-11-02T14:58:27.243Z,48.37
2022-11-02T15:00:47.320Z,47.79
2022-11-02T15:02:50.056Z,47.94
2022-11-02T15:04:54.939Z,48.27
2022-11-02T15:07:02.504Z,47.88
2022-11-02T15:09:08.201Z,47.91
2022-11-02T15:11:44.682Z,47.78
2022-11-02T15:13:47.675Z,47.94
2022-11-02T15:15:55.368Z,47.59
2022-11-02T15:17:56.913Z,47.58
2022-11-02T15:19:58.472Z,47.84
2022-11-02T15:22:30.129Z,47.67
2022-11-02T15:24:33.723Z,47.80
2022-11-02T15:26:49.477Z,47.44
2022-11-02T15:28:54.031Z,47.78
2022-11-02T15:31:03.604Z,47.21
2022-11-02T15:33:06.867Z,47.70
2022-11-02T15:35:19.862Z,47.64
2022-11-02T15:37:26.945Z,47.59
2022-11-02T15:39:30.345Z,47.73
2022-11-02T15:41:43.610Z,47.70
2022-11-02T15:46:03.468Z,47.61
2022-11-02T15:48:26.830Z,47.50
2022-11-02T15:50:44.862Z,47.45
2022-11-02T15:53:24.659Z,47.53
2022-11-02T15:55:51.965Z,47.54
2022-11-02T15:58:28.933Z,47.54
2022-11-02T16:00:30.542Z,47.83
2022-11-02T16:02:35.232Z,47.83
2022-11-02T16:04:37.482Z,47.81
2022-11-02T16:06:42.940Z,47.92
2022-11-02T16:08:45.194Z,47.78
2022-11-02T16:10:48.668Z,47.93
2022-11-02T16:13:12.673Z,47.93
2022-11-02T16:15:19.017Z,47.84
2022-11-02T16:17:31.436Z,47.91
2022-11-02T16:19:33.022Z,48.14
2022-11-02T16:21:34.593Z,47.95
2022-11-02T16:23:40.021Z,47.88
2022-11-02T16:25:52.104Z,48.07
2022-11-02T16:27:53.707Z,48.28
2022-11-02T16:29:55.437Z,47.97
2022-11-02T16:31:58.095Z,48.25
2022-11-02T16:34:11.625Z,47.87
2022-11-02T16:36:22.631Z,48.17
2022-11-02T16:38:24.701Z,48.35
2022-11-02T16:40:27.815Z,48.33
2022-11-02T16:42:29.529Z,48.42
2022-11-02T16:44:33.312Z,48.52
2022-11-02T16:46:48.006Z,48.46
2022-11-02T16:49:15.334Z,48.48
2022-11-02T16:51:18.791Z,48.46
2022-11-02T16:53:31.747Z,48.43
2022-11-02T16:55:41.075Z,48.44
2022-11-02T16:57:45.466Z,48.45
2022-11-02T16:59:57.561Z,48.55
2022-11-02T17:02:04.155Z,48.61
2022-11-02T17:04:17.084Z,48.41
2022-11-02T17:06:19.125Z,48.63
2022-11-02T17:08:30.548Z,48.67
2022-11-02T17:10:34.190Z,48.60
2022-11-02T17:12:42.259Z,48.86
2022-11-02T17:14:47.569Z,48.71
2022-11-02T17:17:27.086Z,48.68
2022-11-02T17:19:44.785Z,49.03
2022-11-02T17:21:46.329Z,49.19
2022-11-02T17:23:48.030Z,48.92
2022-11-02T17:25:49.589Z,49.20
2022-11-02T17:27:53.288Z,49.10
2022-11-02T17:29:54.859Z,49.30
2022-11-02T17:32:00.447Z,49.27
2022-11-02T17:34:10.678Z,49.23
2022-11-02T17:36:13.363Z,49.21
2022-11-02T17:38:15.394Z,49.39
2022-11-02T17:40:16.973Z,49.27
2022-11-02T17:42:37.580Z,49.26
2022-11-02T17:44:39.185Z,49.32
2022-11-02T17:46:43.105Z,49.34
2022-11-02T17:48:47.586Z,49.66
2022-11-02T17:50:52.945Z,49.55
2022-11-02T17:52:55.143Z,49.83
2022-11-02T17:54:57.151Z,49.69
2022-11-02T17:57:01.136Z,49.63
2022-11-02T17:59:02.800Z,49.98
2022-11-02T18:01:05.300Z,49.70
2022-11-02T18:03:14.722Z,49.93
2022-11-02T18:05:28.606Z,49.59
2022-11-02T18:07:30.305Z,50.10
2022-11-02T18:09:32.967Z,50.03
2022-11-02T18:11:34.600Z,50.10
2022-11-02T18:13:36.232Z,50.28
2022-11-02T18:15:37.843Z,50.25
2022-11-02T18:17:39.386Z,50.38
2022-11-02T18:19:40.903Z,50.38
2022-11-02T18:21:42.613Z,50.10
2022-11-02T18:23:44.660Z,50.36
2022-11-02T18:25:46.580Z,50.36
2022-11-02T18:27:48.268Z,50.32
2022-11-02T18:29:49.834Z,50.28
2022-11-02T18:31:51.321Z,50.44
2022-11-02T18:33:53.096Z,50.58
2022-11-02T18:36:05.318Z,50.51
2022-11-02T18:38:07.241Z,50.50
2022-11-02T18:40:11.634Z,50.77
2022-11-02T18:42:13.233Z,50.54
2022-11-02T18:44:15.769Z,50.67
2022-11-02T18:46:17.653Z,50.64
2022-11-02T18:48:19.231Z,50.69
2022-11-02T18:50:20.777Z,50.73
2022-11-02T18:52:22.667Z,50.89
2022-11-02T18:54:24.538Z,50.96
2022-11-02T18:56:26.175Z,50.61
2022-11-02T18:58:27.753Z,50.77
2022-11-02T19:00:29.344Z,50.87
2022-11-02T19:02:31.352Z,51.01
2022-11-02T19:04:33.826Z,50.97
2022-11-02T19:06:54.166Z,50.85
2022-11-02T19:09:14.514Z,51.07
2022-11-02T19:11:16.051Z,50.89
2022-11-02T19:13:17.752Z,51.05
2022-11-02T19:15:19.298Z,51.02
2022-11-02T19:17:22.794Z,50.97
2022-11-02T19:19:24.602Z,50.95
2022-11-02T19:21:26.157Z,50.83
2022-11-02T19:23:27.811Z,51.05
2022-11-02T19:25:29.455Z,50.97
2022-11-02T19:27:31.239Z,51.03
2022-11-02T19:29:34.025Z,50.95
2022-11-02T19:31:35.818Z,50.98
2022-11-02T19:33:37.400Z,51.11
2022-11-02T19:35:38.992Z,51.05
2022-11-02T19:37:41.186Z,51.06
2022-11-02T19:39:42.942Z,51.20
2022-11-02T19:41:44.678Z,51.26
2022-11-02T19:43:46.263Z,51.37
2022-11-02T19:45:47.827Z,51.33
2022-11-02T19:47:50.092Z,51.48
2022-11-02T19:49:51.727Z,51.47
2022-11-02T19:51:53.359Z,51.58
2022-11-02T19:54:00.066Z,51.58
2022-11-02T19:56:01.912Z,51.64
2022-11-02T19:58:03.566Z,51.62
2022-11-02T20:00:05.840Z,51.66
2022-11-02T20:02:11.066Z,51.74
2022-11-02T20:04:12.630Z,51.74
2022-11-02T20:06:23.301Z,51.88
2022-11-02T20:08:26.486Z,51.91
2022-11-02T20:10:28.276Z,51.89
2022-11-02T20:12:33.403Z,52.01
2022-11-02T20:14:36.542Z,51.98
2022-11-02T20:16:38.138Z,52.21
2022-11-02T20:18:41.248Z,51.91
2022-11-02T20:20:42.858Z,52.07
2022-11-02T20:22:45.009Z,52.14
2022-11-02T20:24:46.560Z,52.01
2022-11-02T20:26:48.080Z,52.12
2022-11-02T20:28:50.444Z,52.07
2022-11-02T20:30:53.456Z,52.12
2022-11-02T20:32:54.950Z,52.03
2022-11-02T20:34:56.531Z,52.45
2022-11-02T20:36:57.995Z,52.02
2022-11-02T20:38:59.630Z,52.08
2022-11-02T20:41:13.108Z,52.07
2022-11-02T20:43:14.578Z,52.14
2022-11-02T20:45:17.849Z,52.18
2022-11-02T20:47:19.254Z,52.04
2022-11-02T20:49:44.391Z,52.05
2022-11-02T20:51:44.113Z,52.02
2022-11-02T20:53:46.391Z,52.17
2022-11-02T20:55:48.045Z,52.33
2022-11-02T20:57:49.918Z,52.14
2022-11-02T20:59:51.556Z,52.22
2022-11-02T21:01:53.439Z,52.01
2022-11-02T21:03:55.218Z,51.88
2022-11-02T21:05:57.379Z,52.05
2022-11-02T21:07:59.146Z,52.11
2022-11-02T21:10:00.563Z,52.47
2022-11-02T21:12:21.417Z,51.76
2022-11-02T21:14:23.393Z,51.95
2022-11-02T21:16:25.597Z,51.91
2022-11-02T21:18:27.191Z,51.98
2022-11-02T21:20:34.108Z,51.78
2022-11-02T21:22:36.747Z,52.10
2022-11-02T21:24:38.376Z,52.05
2022-11-02T21:26:39.929Z,52.19
2022-11-02T21:28:44.607Z,52.24
2022-11-02T21:30:46.225Z,51.96
2022-11-02T21:32:51.764Z,52.18
2022-11-02T21:34:53.451Z,51.98
2022-11-02T21:36:55.057Z,52.38
2022-11-02T21:38:58.516Z,52.28
2022-11-02T21:41:01.984Z,52.30
2022-11-02T21:43:03.987Z,52.26
2022-11-02T21:45:06.685Z,52.37
2022-11-02T21:47:08.876Z,52.52
2022-11-02T21:49:10.471Z,52.52
2022-11-02T21:51:18.647Z,52.41
2022-11-02T21:53:20.726Z,52.32
2022-11-02T21:55:22.738Z,52.25
2022-11-02T21:57:27.291Z,52.33
2022-11-02T21:59:29.293Z,52.42
2022-11-02T22:01:44.246Z,52.48
2022-11-02T22:03:46.810Z,52.45
2022-11-02T22:05:57.275Z,52.40
2022-11-02T22:08:17.557Z,52.59
2022-11-02T22:10:19.376Z,52.20
2022-11-02T22:12:39.674Z,52.23
2022-11-02T22:14:43.915Z,52.44
2022-11-02T22:16:45.594Z,52.45
2022-11-02T22:18:52.639Z,52.22
2022-11-02T22:20:55.135Z,52.34
2022-11-02T22:22:56.668Z,52.59
2022-11-02T22:24:58.336Z,52.21
2022-11-02T22:26:59.995Z,52.51
2022-11-02T22:29:04.855Z,52.52
2022-11-02T22:31:09.036Z,52.33
2022-11-02T22:33:13.715Z,52.54
2022-11-02T22:35:15.478Z,52.70
2022-11-02T22:37:35.509Z,52.48
2022-11-02T22:39:37.075Z,52.46
2022-11-02T22:41:49.856Z,52.86
2022-11-02T22:44:15.109Z,52.75
2022-11-02T22:46:17.765Z,52.51
2022-11-02T22:48:20.142Z,52.81
2022-11-02T22:50:27.793Z,53.00
2022-11-02T22:52:32.566Z,52.76
2022-11-02T22:54:34.099Z,53.08
2022-11-02T22:56:36.116Z,52.97
2022-11-02T22:58:39.720Z,53.02
2022-11-02T23:00:41.974Z,53.00
2022-11-02T23:02:43.738Z,53.14
2022-11-02T23:04:45.347Z,52.98
2022-11-02T23:06:47.091Z,53.04
2022-11-02T23:08:52.828Z,53.31
2022-11-02T23:11:17.005Z,53.10
2022-11-02T23:13:18.853Z,53.18
2022-11-02T23:15:22.669Z,53.32
2022-11-02T23:17:24.798Z,53.14
2022-11-02T23:19:30.435Z,53.28
2022-11-02T23:21:32.535Z,53.24
2022-11-02T23:23:52.853Z,53.33
2022-11-02T23:25:56.504Z,53.73
2022-11-02T23:28:17.679Z,53.34
2022-11-02T23:30:38.125Z,53.44
2022-11-02T23:32:41.390Z,53.54
2022-11-02T23:35:03.011Z,53.70
2022-11-02T23:37:07.524Z,53.40
2022-11-02T23:39:28.147Z,53.59
2022-11-02T23:41:31.448Z,53.77
2022-11-02T23:43:32.949Z,53.46
2022-11-02T23:45:37.752Z,53.80
2022-11-02T23:47:57.234Z,53.57
2022-11-02T23:49:58.808Z,53.47
2022-11-02T23:52:21.622Z,53.49
2022-11-02T23:54:41.830Z,53.47
2022-11-02T23:56:43.696Z,53.47
2022-11-02T23:58:46.229Z,53.60
